sensor_id;sensor_type;location;lat;lon;timestamp;P1;durP1;ratioP1;P2;durP2;ratioP2
80127;SDS011;69440;52.118;5.408;2023-05-14T00:01:22;16.88;;;9.23;;
80127;SDS011;69440;52.118;5.408;2023-05-14T00:03:48;12.98;;;9.48;;
80127;SDS011;69440;52.118;5.408;2023-05-14T00:06:15;15.18;;;8.98;;
80127;SDS011;69440;52.118;5.408;2023-05-14T00:08:42;15.23;;;8.98;;
80127;SDS011;69440;52.118;5.408;2023-05-14T00:11:08;15.80;;;10.25;;
80127;SDS011;69440;52.118;5.408;2023-05-14T00:13:34;13.85;;;9.95;;
80127;SDS011;69440;52.118;5.408;2023-05-14T00:16:01;15.63;;;9.50;;
80127;SDS011;69440;52.118;5.408;2023-05-14T00:18:28;12.35;;;9.43;;
80127;SDS011;69440;52.118;5.408;2023-05-14T00:20:54;16.85;;;9.85;;
80127;SDS011;69440;52.118;5.408;2023-05-14T00:23:21;15.23;;;8.73;;
80127;SDS011;69440;52.118;5.408;2023-05-14T00:25:48;16.88;;;9.55;;
80127;SDS011;69440;52.118;5.408;2023-05-14T00:28:15;12.20;;;8.40;;
80127;SDS011;69440;52.118;5.408;2023-05-14T00:30:41;15.80;;;10.18;;
80127;SDS011;69440;52.118;5.408;2023-05-14T00:33:08;16.95;;;9.18;;
80127;SDS011;69440;52.118;5.408;2023-05-14T00:35:34;15.20;;;9.57;;
80127;SDS011;69440;52.118;5.408;2023-05-14T00:38:01;15.45;;;10.52;;
80127;SDS011;69440;52.118;5.408;2023-05-14T00:40:28;16.73;;;8.60;;
80127;SDS011;69440;52.118;5.408;2023-05-14T00:42:55;17.40;;;10.10;;
80127;SDS011;69440;52.118;5.408;2023-05-14T00:45:22;13.68;;;9.82;;
80127;SDS011;69440;52.118;5.408;2023-05-14T00:47:48;17.65;;;9.95;;
80127;SDS011;69440;52.118;5.408;2023-05-14T00:50:15;15.63;;;9.35;;
80127;SDS011;69440;52.118;5.408;2023-05-14T00:52:43;12.60;;;9.32;;
80127;SDS011;69440;52.118;5.408;2023-05-14T00:55:09;14.63;;;9.90;;
80127;SDS011;69440;52.118;5.408;2023-05-14T00:57:41;13.73;;;9.65;;
80127;SDS011;69440;52.118;5.408;2023-05-14T01:00:08;12.63;;;7.75;;
80127;SDS011;69440;52.118;5.408;2023-05-14T01:02:35;14.23;;;9.30;;
80127;SDS011;69440;52.118;5.408;2023-05-14T01:05:01;13.65;;;9.60;;
80127;SDS011;69440;52.118;5.408;2023-05-14T01:07:33;13.20;;;9.20;;
80127;SDS011;69440;52.118;5.408;2023-05-14T01:10:08;14.57;;;10.23;;
80127;SDS011;69440;52.118;5.408;2023-05-14T01:15:33;18.98;;;9.60;;
80127;SDS011;69440;52.118;5.408;2023-05-14T01:18:03;15.13;;;9.30;;
80127;SDS011;69440;52.118;5.408;2023-05-14T01:20:34;17.73;;;9.55;;
80127;SDS011;69440;52.118;5.408;2023-05-14T01:23:01;14.05;;;9.63;;
80127;SDS011;69440;52.118;5.408;2023-05-14T01:25:29;14.75;;;9.07;;
80127;SDS011;69440;52.118;5.408;2023-05-14T01:28:00;14.63;;;8.95;;
80127;SDS011;69440;52.118;5.408;2023-05-14T01:30:34;14.13;;;8.88;;
80127;SDS011;69440;52.118;5.408;2023-05-14T01:33:05;13.25;;;7.78;;
80127;SDS011;69440;52.118;5.408;2023-05-14T01:35:35;12.95;;;8.40;;
80127;SDS011;69440;52.118;5.408;2023-05-14T01:38:03;14.45;;;8.95;;
80127;SDS011;69440;52.118;5.408;2023-05-14T01:40:32;12.57;;;7.97;;
80127;SDS011;69440;52.118;5.408;2023-05-14T01:42:59;15.32;;;9.82;;
80127;SDS011;69440;52.118;5.408;2023-05-14T01:45:27;14.32;;;8.20;;
80127;SDS011;69440;52.118;5.408;2023-05-14T01:47:53;14.68;;;9.57;;
80127;SDS011;69440;52.118;5.408;2023-05-14T01:50:19;16.25;;;9.02;;
80127;SDS011;69440;52.118;5.408;2023-05-14T01:52:46;14.85;;;8.70;;
80127;SDS011;69440;52.118;5.408;2023-05-14T01:55:18;13.88;;;9.35;;
80127;SDS011;69440;52.118;5.408;2023-05-14T01:57:44;15.93;;;9.85;;
80127;SDS011;69440;52.118;5.408;2023-05-14T02:00:11;16.42;;;9.13;;
80127;SDS011;69440;52.118;5.408;2023-05-14T02:02:38;17.02;;;9.38;;
80127;SDS011;69440;52.118;5.408;2023-05-14T02:05:04;15.23;;;10.23;;
80127;SDS011;69440;52.118;5.408;2023-05-14T02:07:32;12.10;;;8.15;;
80127;SDS011;69440;52.118;5.408;2023-05-14T02:09:58;12.85;;;8.07;;
80127;SDS011;69440;52.118;5.408;2023-05-14T02:12:25;15.05;;;9.15;;
80127;SDS011;69440;52.118;5.408;2023-05-14T02:14:51;13.25;;;9.18;;
80127;SDS011;69440;52.118;5.408;2023-05-14T02:17:18;14.70;;;9.05;;
80127;SDS011;69440;52.118;5.408;2023-05-14T02:19:45;17.00;;;8.45;;
80127;SDS011;69440;52.118;5.408;2023-05-14T02:22:11;15.68;;;9.77;;
80127;SDS011;69440;52.118;5.408;2023-05-14T02:24:38;15.95;;;9.32;;
80127;SDS011;69440;52.118;5.408;2023-05-14T02:27:04;15.23;;;9.20;;
80127;SDS011;69440;52.118;5.408;2023-05-14T02:29:31;13.70;;;8.63;;
80127;SDS011;69440;52.118;5.408;2023-05-14T02:31:57;15.50;;;8.43;;
80127;SDS011;69440;52.118;5.408;2023-05-14T02:34:24;16.10;;;9.73;;
80127;SDS011;69440;52.118;5.408;2023-05-14T02:36:51;12.15;;;8.75;;
80127;SDS011;69440;52.118;5.408;2023-05-14T02:39:17;16.10;;;9.10;;
80127;SDS011;69440;52.118;5.408;2023-05-14T02:41:43;15.88;;;9.00;;
80127;SDS011;69440;52.118;5.408;2023-05-14T02:44:10;17.42;;;9.57;;
80127;SDS011;69440;52.118;5.408;2023-05-14T02:46:36;16.90;;;9.68;;
80127;SDS011;69440;52.118;5.408;2023-05-14T02:49:03;15.70;;;8.65;;
80127;SDS011;69440;52.118;5.408;2023-05-14T02:51:29;15.55;;;8.93;;
80127;SDS011;69440;52.118;5.408;2023-05-14T02:53:55;14.93;;;8.73;;
80127;SDS011;69440;52.118;5.408;2023-05-14T02:56:22;16.67;;;8.98;;
80127;SDS011;69440;52.118;5.408;2023-05-14T02:58:48;14.85;;;8.48;;
80127;SDS011;69440;52.118;5.408;2023-05-14T03:01:15;14.73;;;8.77;;
80127;SDS011;69440;52.118;5.408;2023-05-14T03:03:42;16.65;;;10.30;;
80127;SDS011;69440;52.118;5.408;2023-05-14T03:06:09;18.40;;;8.38;;
80127;SDS011;69440;52.118;5.408;2023-05-14T03:08:35;17.70;;;9.80;;
80127;SDS011;69440;52.118;5.408;2023-05-14T03:11:02;16.27;;;9.55;;
80127;SDS011;69440;52.118;5.408;2023-05-14T03:13:28;14.52;;;8.90;;
80127;SDS011;69440;52.118;5.408;2023-05-14T03:15:55;16.95;;;8.27;;
80127;SDS011;69440;52.118;5.408;2023-05-14T03:18:21;16.33;;;8.90;;
80127;SDS011;69440;52.118;5.408;2023-05-14T03:20:48;19.00;;;8.98;;
80127;SDS011;69440;52.118;5.408;2023-05-14T03:23:14;14.60;;;8.63;;
80127;SDS011;69440;52.118;5.408;2023-05-14T03:25:41;16.40;;;8.02;;
80127;SDS011;69440;52.118;5.408;2023-05-14T03:28:07;19.10;;;10.05;;
80127;SDS011;69440;52.118;5.408;2023-05-14T03:30:33;14.57;;;8.75;;
80127;SDS011;69440;52.118;5.408;2023-05-14T03:33:00;15.20;;;9.30;;
80127;SDS011;69440;52.118;5.408;2023-05-14T03:35:27;17.50;;;9.60;;
80127;SDS011;69440;52.118;5.408;2023-05-14T03:37:53;14.77;;;9.82;;
80127;SDS011;69440;52.118;5.408;2023-05-14T03:40:19;15.80;;;8.82;;
80127;SDS011;69440;52.118;5.408;2023-05-14T03:42:46;15.45;;;8.68;;
80127;SDS011;69440;52.118;5.408;2023-05-14T03:45:13;16.27;;;9.50;;
80127;SDS011;69440;52.118;5.408;2023-05-14T03:47:39;17.10;;;8.98;;
80127;SDS011;69440;52.118;5.408;2023-05-14T03:50:07;17.38;;;9.75;;
80127;SDS011;69440;52.118;5.408;2023-05-14T03:52:33;15.75;;;9.23;;
80127;SDS011;69440;52.118;5.408;2023-05-14T03:55:00;14.93;;;9.27;;
80127;SDS011;69440;52.118;5.408;2023-05-14T03:57:27;15.85;;;9.30;;
80127;SDS011;69440;52.118;5.408;2023-05-14T03:59:53;15.45;;;9.90;;
80127;SDS011;69440;52.118;5.408;2023-05-14T04:02:20;17.40;;;9.40;;
80127;SDS011;69440;52.118;5.408;2023-05-14T04:04:46;14.68;;;9.32;;
80127;SDS011;69440;52.118;5.408;2023-05-14T04:07:13;15.00;;;8.82;;
80127;SDS011;69440;52.118;5.408;2023-05-14T04:09:39;15.35;;;8.85;;
80127;SDS011;69440;52.118;5.408;2023-05-14T04:12:06;15.95;;;9.55;;
80127;SDS011;69440;52.118;5.408;2023-05-14T04:14:32;15.93;;;9.27;;
80127;SDS011;69440;52.118;5.408;2023-05-14T04:16:59;15.90;;;8.82;;
80127;SDS011;69440;52.118;5.408;2023-05-14T04:19:25;13.45;;;9.15;;
80127;SDS011;69440;52.118;5.408;2023-05-14T04:21:52;16.20;;;8.80;;
80127;SDS011;69440;52.118;5.408;2023-05-14T04:24:18;17.27;;;8.82;;
80127;SDS011;69440;52.118;5.408;2023-05-14T04:26:44;16.15;;;8.60;;
80127;SDS011;69440;52.118;5.408;2023-05-14T04:29:11;13.48;;;8.70;;
80127;SDS011;69440;52.118;5.408;2023-05-14T04:31:37;14.27;;;9.30;;
80127;SDS011;69440;52.118;5.408;2023-05-14T04:34:04;15.00;;;9.05;;
80127;SDS011;69440;52.118;5.408;2023-05-14T04:36:31;19.60;;;7.47;;
80127;SDS011;69440;52.118;5.408;2023-05-14T04:38:57;14.07;;;8.75;;
80127;SDS011;69440;52.118;5.408;2023-05-14T04:41:24;16.70;;;7.85;;
80127;SDS011;69440;52.118;5.408;2023-05-14T04:43:50;16.65;;;8.80;;
80127;SDS011;69440;52.118;5.408;2023-05-14T04:46:20;13.82;;;7.88;;
80127;SDS011;69440;52.118;5.408;2023-05-14T04:48:47;15.40;;;7.80;;
80127;SDS011;69440;52.118;5.408;2023-05-14T04:51:14;14.88;;;8.18;;
80127;SDS011;69440;52.118;5.408;2023-05-14T04:53:40;14.13;;;7.97;;
80127;SDS011;69440;52.118;5.408;2023-05-14T04:56:06;16.17;;;8.05;;
80127;SDS011;69440;52.118;5.408;2023-05-14T04:58:33;12.73;;;7.28;;
80127;SDS011;69440;52.118;5.408;2023-05-14T05:01:01;13.75;;;7.50;;
80127;SDS011;69440;52.118;5.408;2023-05-14T05:03:28;14.13;;;7.82;;
80127;SDS011;69440;52.118;5.408;2023-05-14T05:05:55;13.27;;;7.45;;
80127;SDS011;69440;52.118;5.408;2023-05-14T05:08:21;12.48;;;6.93;;
80127;SDS011;69440;52.118;5.408;2023-05-14T05:10:48;12.25;;;7.88;;
80127;SDS011;69440;52.118;5.408;2023-05-14T05:13:14;13.10;;;7.50;;
80127;SDS011;69440;52.118;5.408;2023-05-14T05:15:42;12.50;;;7.20;;
80127;SDS011;69440;52.118;5.408;2023-05-14T05:18:08;11.88;;;7.18;;
80127;SDS011;69440;52.118;5.408;2023-05-14T05:20:35;12.90;;;8.27;;
80127;SDS011;69440;52.118;5.408;2023-05-14T05:23:01;13.00;;;7.43;;
80127;SDS011;69440;52.118;5.408;2023-05-14T05:25:27;11.48;;;7.70;;
80127;SDS011;69440;52.118;5.408;2023-05-14T05:27:54;12.32;;;6.85;;
80127;SDS011;69440;52.118;5.408;2023-05-14T05:30:20;13.38;;;7.70;;
80127;SDS011;69440;52.118;5.408;2023-05-14T05:32:47;12.73;;;6.80;;
80127;SDS011;69440;52.118;5.408;2023-05-14T05:35:14;13.07;;;8.07;;
80127;SDS011;69440;52.118;5.408;2023-05-14T05:37:41;13.40;;;8.38;;
80127;SDS011;69440;52.118;5.408;2023-05-14T05:40:08;12.45;;;7.43;;
80127;SDS011;69440;52.118;5.408;2023-05-14T05:42:35;12.57;;;6.82;;
80127;SDS011;69440;52.118;5.408;2023-05-14T05:45:01;10.18;;;6.70;;
80127;SDS011;69440;52.118;5.408;2023-05-14T05:47:28;11.88;;;7.53;;
80127;SDS011;69440;52.118;5.408;2023-05-14T05:49:55;12.48;;;7.38;;
80127;SDS011;69440;52.118;5.408;2023-05-14T05:52:21;11.98;;;8.13;;
80127;SDS011;69440;52.118;5.408;2023-05-14T05:54:48;10.70;;;7.43;;
80127;SDS011;69440;52.118;5.408;2023-05-14T05:57:15;11.40;;;7.60;;
80127;SDS011;69440;52.118;5.408;2023-05-14T05:59:41;10.00;;;7.15;;
80127;SDS011;69440;52.118;5.408;2023-05-14T06:02:08;13.07;;;7.35;;
80127;SDS011;69440;52.118;5.408;2023-05-14T06:04:34;13.43;;;6.80;;
80127;SDS011;69440;52.118;5.408;2023-05-14T06:07:01;10.27;;;6.68;;
80127;SDS011;69440;52.118;5.408;2023-05-14T06:09:27;15.60;;;8.25;;
80127;SDS011;69440;52.118;5.408;2023-05-14T06:11:54;12.63;;;7.93;;
80127;SDS011;69440;52.118;5.408;2023-05-14T06:14:20;13.52;;;7.65;;
80127;SDS011;69440;52.118;5.408;2023-05-14T06:16:46;11.60;;;7.65;;
80127;SDS011;69440;52.118;5.408;2023-05-14T06:19:13;10.18;;;6.53;;
80127;SDS011;69440;52.118;5.408;2023-05-14T06:21:39;17.52;;;8.40;;
80127;SDS011;69440;52.118;5.408;2023-05-14T06:24:06;12.90;;;7.78;;
80127;SDS011;69440;52.118;5.408;2023-05-14T06:26:32;12.85;;;7.07;;
80127;SDS011;69440;52.118;5.408;2023-05-14T06:28:59;14.20;;;7.78;;
80127;SDS011;69440;52.118;5.408;2023-05-14T06:31:25;14.73;;;7.15;;
80127;SDS011;69440;52.118;5.408;2023-05-14T06:33:52;13.43;;;8.00;;
80127;SDS011;69440;52.118;5.408;2023-05-14T06:36:18;11.05;;;7.43;;
80127;SDS011;69440;52.118;5.408;2023-05-14T06:38:44;15.23;;;7.65;;
80127;SDS011;69440;52.118;5.408;2023-05-14T06:41:11;13.57;;;6.68;;
80127;SDS011;69440;52.118;5.408;2023-05-14T06:43:37;11.65;;;6.07;;
80127;SDS011;69440;52.118;5.408;2023-05-14T06:46:04;11.00;;;6.63;;
80127;SDS011;69440;52.118;5.408;2023-05-14T06:48:30;9.10;;;6.70;;
80127;SDS011;69440;52.118;5.408;2023-05-14T06:50:56;12.63;;;6.70;;
80127;SDS011;69440;52.118;5.408;2023-05-14T06:53:23;15.02;;;7.38;;
80127;SDS011;69440;52.118;5.408;2023-05-14T06:55:49;11.70;;;7.00;;
80127;SDS011;69440;52.118;5.408;2023-05-14T06:58:16;12.02;;;7.32;;
80127;SDS011;69440;52.118;5.408;2023-05-14T07:00:42;10.32;;;6.45;;
80127;SDS011;69440;52.118;5.408;2023-05-14T07:03:09;13.30;;;7.15;;
80127;SDS011;69440;52.118;5.408;2023-05-14T07:05:35;11.68;;;6.93;;
80127;SDS011;69440;52.118;5.408;2023-05-14T07:08:02;13.00;;;6.10;;
80127;SDS011;69440;52.118;5.408;2023-05-14T07:10:28;9.48;;;6.45;;
80127;SDS011;69440;52.118;5.408;2023-05-14T07:12:55;9.25;;;6.75;;
80127;SDS011;69440;52.118;5.408;2023-05-14T07:15:22;13.52;;;6.88;;
80127;SDS011;69440;52.118;5.408;2023-05-14T07:17:48;12.73;;;6.65;;
80127;SDS011;69440;52.118;5.408;2023-05-14T07:20:15;9.48;;;5.57;;
80127;SDS011;69440;52.118;5.408;2023-05-14T07:22:41;10.20;;;6.43;;
80127;SDS011;69440;52.118;5.408;2023-05-14T07:25:08;8.48;;;6.00;;
80127;SDS011;69440;52.118;5.408;2023-05-14T07:27:34;10.68;;;5.68;;
80127;SDS011;69440;52.118;5.408;2023-05-14T07:30:01;9.10;;;5.60;;
80127;SDS011;69440;52.118;5.408;2023-05-14T07:32:27;12.90;;;6.47;;
80127;SDS011;69440;52.118;5.408;2023-05-14T07:34:53;9.52;;;6.63;;
80127;SDS011;69440;52.118;5.408;2023-05-14T07:37:21;12.45;;;7.20;;
80127;SDS011;69440;52.118;5.408;2023-05-14T07:39:49;12.38;;;7.45;;
80127;SDS011;69440;52.118;5.408;2023-05-14T07:42:16;9.23;;;6.85;;
80127;SDS011;69440;52.118;5.408;2023-05-14T07:45:00;13.63;;;6.53;;
80127;SDS011;69440;52.118;5.408;2023-05-14T07:47:27;10.95;;;6.72;;
80127;SDS011;69440;52.118;5.408;2023-05-14T07:49:55;13.70;;;7.32;;
80127;SDS011;69440;52.118;5.408;2023-05-14T07:52:22;13.27;;;7.32;;
80127;SDS011;69440;52.118;5.408;2023-05-14T07:54:49;11.57;;;8.18;;
80127;SDS011;69440;52.118;5.408;2023-05-14T07:57:17;12.30;;;7.93;;
80127;SDS011;69440;52.118;5.408;2023-05-14T07:59:44;12.50;;;7.93;;
80127;SDS011;69440;52.118;5.408;2023-05-14T08:02:11;8.95;;;6.50;;
80127;SDS011;69440;52.118;5.408;2023-05-14T08:04:38;10.38;;;7.07;;
80127;SDS011;69440;52.118;5.408;2023-05-14T08:07:05;10.75;;;7.78;;
80127;SDS011;69440;52.118;5.408;2023-05-14T08:09:33;13.38;;;7.97;;
80127;SDS011;69440;52.118;5.408;2023-05-14T08:12:00;16.02;;;8.98;;
80127;SDS011;69440;52.118;5.408;2023-05-14T08:14:26;14.63;;;7.60;;
80127;SDS011;69440;52.118;5.408;2023-05-14T08:16:53;13.82;;;7.25;;
80127;SDS011;69440;52.118;5.408;2023-05-14T08:19:20;10.25;;;7.68;;
80127;SDS011;69440;52.118;5.408;2023-05-14T08:21:46;13.10;;;7.50;;
80127;SDS011;69440;52.118;5.408;2023-05-14T08:24:13;11.85;;;7.97;;
80127;SDS011;69440;52.118;5.408;2023-05-14T08:26:40;11.63;;;7.95;;
80127;SDS011;69440;52.118;5.408;2023-05-14T08:29:07;12.65;;;7.93;;
80127;SDS011;69440;52.118;5.408;2023-05-14T08:31:36;10.93;;;8.18;;
80127;SDS011;69440;52.118;5.408;2023-05-14T08:34:02;10.93;;;7.25;;
80127;SDS011;69440;52.118;5.408;2023-05-14T08:36:28;10.07;;;7.35;;
80127;SDS011;69440;52.118;5.408;2023-05-14T08:38:55;9.02;;;6.88;;
80127;SDS011;69440;52.118;5.408;2023-05-14T08:41:21;11.88;;;7.43;;
80127;SDS011;69440;52.118;5.408;2023-05-14T08:46:23;8.75;;;6.10;;
80127;SDS011;69440;52.118;5.408;2023-05-14T08:48:52;10.48;;;6.80;;
80127;SDS011;69440;52.118;5.408;2023-05-14T08:51:25;11.40;;;7.55;;
80127;SDS011;69440;52.118;5.408;2023-05-14T08:53:52;12.55;;;6.60;;
80127;SDS011;69440;52.118;5.408;2023-05-14T08:56:19;12.10;;;6.75;;
80127;SDS011;69440;52.118;5.408;2023-05-14T08:58:46;9.32;;;6.70;;
80127;SDS011;69440;52.118;5.408;2023-05-14T09:01:13;8.48;;;6.55;;
80127;SDS011;69440;52.118;5.408;2023-05-14T09:03:39;9.52;;;6.55;;
80127;SDS011;69440;52.118;5.408;2023-05-14T09:06:06;9.25;;;5.65;;
80127;SDS011;69440;52.118;5.408;2023-05-14T09:08:33;11.32;;;6.10;;
80127;SDS011;69440;52.118;5.408;2023-05-14T09:11:01;9.55;;;6.00;;
80127;SDS011;69440;52.118;5.408;2023-05-14T09:13:27;13.02;;;6.20;;
80127;SDS011;69440;52.118;5.408;2023-05-14T09:15:54;11.38;;;6.18;;
80127;SDS011;69440;52.118;5.408;2023-05-14T09:18:21;9.98;;;6.05;;
80127;SDS011;69440;52.118;5.408;2023-05-14T09:20:48;12.60;;;6.55;;
80127;SDS011;69440;52.118;5.408;2023-05-14T09:23:14;9.48;;;5.82;;
80127;SDS011;69440;52.118;5.408;2023-05-14T09:25:40;10.55;;;5.30;;
80127;SDS011;69440;52.118;5.408;2023-05-14T09:28:07;10.15;;;6.18;;
80127;SDS011;69440;52.118;5.408;2023-05-14T09:30:34;7.50;;;5.93;;
80127;SDS011;69440;52.118;5.408;2023-05-14T09:33:02;10.80;;;5.97;;
80127;SDS011;69440;52.118;5.408;2023-05-14T09:35:29;9.95;;;5.90;;
80127;SDS011;69440;52.118;5.408;2023-05-14T09:37:57;9.32;;;6.43;;
80127;SDS011;69440;52.118;5.408;2023-05-14T09:40:23;11.65;;;6.00;;
80127;SDS011;69440;52.118;5.408;2023-05-14T09:42:50;9.32;;;5.28;;
80127;SDS011;69440;52.118;5.408;2023-05-14T09:45:17;12.25;;;6.13;;
80127;SDS011;69440;52.118;5.408;2023-05-14T09:47:43;9.55;;;5.78;;
80127;SDS011;69440;52.118;5.408;2023-05-14T09:50:10;13.75;;;6.78;;
80127;SDS011;69440;52.118;5.408;2023-05-14T09:52:37;7.40;;;5.57;;
80127;SDS011;69440;52.118;5.408;2023-05-14T09:55:04;10.35;;;6.38;;
80127;SDS011;69440;52.118;5.408;2023-05-14T09:57:31;7.97;;;5.47;;
80127;SDS011;69440;52.118;5.408;2023-05-14T09:59:58;10.10;;;6.00;;
80127;SDS011;69440;52.118;5.408;2023-05-14T10:02:25;9.07;;;5.07;;
80127;SDS011;69440;52.118;5.408;2023-05-14T10:04:56;10.27;;;5.57;;
80127;SDS011;69440;52.118;5.408;2023-05-14T10:07:28;7.90;;;5.22;;
80127;SDS011;69440;52.118;5.408;2023-05-14T10:10:08;9.02;;;5.35;;
80127;SDS011;69440;52.118;5.408;2023-05-14T10:12:38;13.07;;;6.22;;
80127;SDS011;69440;52.118;5.408;2023-05-14T10:15:08;11.07;;;6.13;;
80127;SDS011;69440;52.118;5.408;2023-05-14T10:17:42;11.32;;;5.53;;
80127;SDS011;69440;52.118;5.408;2023-05-14T10:20:14;8.50;;;5.85;;
80127;SDS011;69440;52.118;5.408;2023-05-14T10:22:43;13.52;;;5.25;;
80127;SDS011;69440;52.118;5.408;2023-05-14T10:25:10;10.88;;;5.95;;
80127;SDS011;69440;52.118;5.408;2023-05-14T10:27:37;12.13;;;5.93;;
80127;SDS011;69440;52.118;5.408;2023-05-14T10:30:05;10.32;;;6.88;;
80127;SDS011;69440;52.118;5.408;2023-05-14T10:32:37;13.35;;;5.63;;
80127;SDS011;69440;52.118;5.408;2023-05-14T10:35:17;8.80;;;5.65;;
80127;SDS011;69440;52.118;5.408;2023-05-14T10:37:45;8.63;;;4.57;;
80127;SDS011;69440;52.118;5.408;2023-05-14T10:40:12;10.73;;;5.68;;
80127;SDS011;69440;52.118;5.408;2023-05-14T10:42:39;7.03;;;5.07;;
80127;SDS011;69440;52.118;5.408;2023-05-14T10:45:12;10.32;;;4.82;;
80127;SDS011;69440;52.118;5.408;2023-05-14T10:47:41;7.65;;;4.55;;
80127;SDS011;69440;52.118;5.408;2023-05-14T10:50:09;8.60;;;5.00;;
80127;SDS011;69440;52.118;5.408;2023-05-14T10:52:39;10.57;;;5.35;;
80127;SDS011;69440;52.118;5.408;2023-05-14T10:55:07;8.10;;;4.97;;
80127;SDS011;69440;52.118;5.408;2023-05-14T10:57:37;10.80;;;5.82;;
80127;SDS011;69440;52.118;5.408;2023-05-14T11:00:04;8.32;;;4.80;;
80127;SDS011;69440;52.118;5.408;2023-05-14T11:02:42;7.22;;;4.38;;
80127;SDS011;69440;52.118;5.408;2023-05-14T11:05:11;8.85;;;4.97;;
80127;SDS011;69440;52.118;5.408;2023-05-14T11:07:41;9.00;;;4.55;;
80127;SDS011;69440;52.118;5.408;2023-05-14T11:10:13;9.93;;;5.25;;
80127;SDS011;69440;52.118;5.408;2023-05-14T11:12:42;12.15;;;4.93;;
80127;SDS011;69440;52.118;5.408;2023-05-14T11:15:11;8.27;;;4.80;;
80127;SDS011;69440;52.118;5.408;2023-05-14T11:17:39;9.05;;;4.65;;
80127;SDS011;69440;52.118;5.408;2023-05-14T11:20:07;8.70;;;4.03;;
80127;SDS011;69440;52.118;5.408;2023-05-14T11:22:34;10.18;;;4.18;;
80127;SDS011;69440;52.118;5.408;2023-05-14T11:25:02;10.02;;;4.70;;
80127;SDS011;69440;52.118;5.408;2023-05-14T11:27:28;8.00;;;4.85;;
80127;SDS011;69440;52.118;5.408;2023-05-14T11:29:58;10.75;;;4.45;;
80127;SDS011;69440;52.118;5.408;2023-05-14T11:32:26;9.50;;;4.40;;
80127;SDS011;69440;52.118;5.408;2023-05-14T11:34:53;7.40;;;4.22;;
80127;SDS011;69440;52.118;5.408;2023-05-14T11:37:19;7.90;;;4.07;;
80127;SDS011;69440;52.118;5.408;2023-05-14T11:39:47;12.48;;;4.13;;
80127;SDS011;69440;52.118;5.408;2023-05-14T11:42:14;9.35;;;4.60;;
80127;SDS011;69440;52.118;5.408;2023-05-14T11:44:45;9.10;;;4.78;;
80127;SDS011;69440;52.118;5.408;2023-05-14T11:47:12;6.80;;;4.30;;
80127;SDS011;69440;52.118;5.408;2023-05-14T11:49:39;7.07;;;4.57;;
80127;SDS011;69440;52.118;5.408;2023-05-14T11:52:06;10.98;;;4.78;;
80127;SDS011;69440;52.118;5.408;2023-05-14T11:54:36;10.25;;;4.53;;
80127;SDS011;69440;52.118;5.408;2023-05-14T11:57:06;7.40;;;4.45;;
80127;SDS011;69440;52.118;5.408;2023-05-14T11:59:35;7.68;;;4.10;;
80127;SDS011;69440;52.118;5.408;2023-05-14T12:02:02;8.65;;;3.97;;
80127;SDS011;69440;52.118;5.408;2023-05-14T12:04:31;6.50;;;4.30;;
80127;SDS011;69440;52.118;5.408;2023-05-14T12:06:59;10.88;;;4.55;;
80127;SDS011;69440;52.118;5.408;2023-05-14T12:09:25;6.22;;;4.30;;
80127;SDS011;69440;52.118;5.408;2023-05-14T12:11:52;8.57;;;4.15;;
80127;SDS011;69440;52.118;5.408;2023-05-14T12:14:19;6.40;;;3.80;;
80127;SDS011;69440;52.118;5.408;2023-05-14T12:16:49;10.60;;;3.88;;
80127;SDS011;69440;52.118;5.408;2023-05-14T12:19:17;8.93;;;3.83;;
80127;SDS011;69440;52.118;5.408;2023-05-14T12:21:45;6.60;;;3.42;;
80127;SDS011;69440;52.118;5.408;2023-05-14T12:24:14;9.10;;;3.47;;
80127;SDS011;69440;52.118;5.408;2023-05-14T12:26:43;9.82;;;3.92;;
80127;SDS011;69440;52.118;5.408;2023-05-14T12:29:11;9.52;;;4.00;;
80127;SDS011;69440;52.118;5.408;2023-05-14T12:31:45;9.27;;;4.30;;
80127;SDS011;69440;52.118;5.408;2023-05-14T12:34:14;8.68;;;3.72;;
80127;SDS011;69440;52.118;5.408;2023-05-14T12:36:41;7.45;;;3.65;;
80127;SDS011;69440;52.118;5.408;2023-05-14T12:39:08;6.45;;;3.38;;
80127;SDS011;69440;52.118;5.408;2023-05-14T12:41:35;5.93;;;3.20;;
80127;SDS011;69440;52.118;5.408;2023-05-14T12:44:02;5.60;;;3.95;;
80127;SDS011;69440;52.118;5.408;2023-05-14T12:46:30;7.10;;;3.85;;
80127;SDS011;69440;52.118;5.408;2023-05-14T12:48:58;5.97;;;3.05;;
80127;SDS011;69440;52.118;5.408;2023-05-14T12:51:24;8.00;;;3.53;;
80127;SDS011;69440;52.118;5.408;2023-05-14T12:53:50;10.10;;;3.33;;
80127;SDS011;69440;52.118;5.408;2023-05-14T12:56:19;7.45;;;3.95;;
80127;SDS011;69440;52.118;5.408;2023-05-14T12:58:46;7.45;;;3.40;;
80127;SDS011;69440;52.118;5.408;2023-05-14T13:01:12;8.13;;;3.97;;
80127;SDS011;69440;52.118;5.408;2023-05-14T13:03:39;6.95;;;3.70;;
80127;SDS011;69440;52.118;5.408;2023-05-14T13:06:06;8.90;;;3.80;;
80127;SDS011;69440;52.118;5.408;2023-05-14T13:08:33;7.93;;;3.70;;
80127;SDS011;69440;52.118;5.408;2023-05-14T13:11:00;7.30;;;3.58;;
80127;SDS011;69440;52.118;5.408;2023-05-14T13:13:26;6.30;;;4.38;;
80127;SDS011;69440;52.118;5.408;2023-05-14T13:15:53;8.23;;;4.03;;
80127;SDS011;69440;52.118;5.408;2023-05-14T13:18:20;9.35;;;3.75;;
80127;SDS011;69440;52.118;5.408;2023-05-14T13:20:47;10.95;;;4.03;;
80127;SDS011;69440;52.118;5.408;2023-05-14T13:23:13;10.63;;;4.10;;
80127;SDS011;69440;52.118;5.408;2023-05-14T13:25:40;9.75;;;3.95;;
80127;SDS011;69440;52.118;5.408;2023-05-14T13:28:07;7.57;;;3.80;;
80127;SDS011;69440;52.118;5.408;2023-05-14T13:30:33;6.28;;;3.70;;
80127;SDS011;69440;52.118;5.408;2023-05-14T13:33:00;5.82;;;3.40;;
80127;SDS011;69440;52.118;5.408;2023-05-14T13:35:26;8.50;;;3.85;;
80127;SDS011;69440;52.118;5.408;2023-05-14T13:37:53;9.40;;;3.55;;
80127;SDS011;69440;52.118;5.408;2023-05-14T13:40:19;4.97;;;3.50;;
80127;SDS011;69440;52.118;5.408;2023-05-14T13:42:46;6.95;;;3.70;;
80127;SDS011;69440;52.118;5.408;2023-05-14T13:45:12;7.20;;;3.65;;
80127;SDS011;69440;52.118;5.408;2023-05-14T13:47:39;7.53;;;4.00;;
80127;SDS011;69440;52.118;5.408;2023-05-14T13:50:05;7.80;;;3.88;;
80127;SDS011;69440;52.118;5.408;2023-05-14T13:52:32;5.30;;;3.50;;
80127;SDS011;69440;52.118;5.408;2023-05-14T13:54:59;8.13;;;3.40;;
80127;SDS011;69440;52.118;5.408;2023-05-14T13:57:25;6.53;;;3.90;;
80127;SDS011;69440;52.118;5.408;2023-05-14T13:59:52;7.32;;;3.47;;
80127;SDS011;69440;52.118;5.408;2023-05-14T14:02:18;7.28;;;3.90;;
80127;SDS011;69440;52.118;5.408;2023-05-14T14:04:44;9.43;;;3.63;;
80127;SDS011;69440;52.118;5.408;2023-05-14T14:07:11;7.15;;;3.78;;
80127;SDS011;69440;52.118;5.408;2023-05-14T14:09:37;9.75;;;3.83;;
80127;SDS011;69440;52.118;5.408;2023-05-14T14:12:04;5.70;;;3.53;;
80127;SDS011;69440;52.118;5.408;2023-05-14T14:14:31;9.43;;;3.88;;
80127;SDS011;69440;52.118;5.408;2023-05-14T14:16:57;6.25;;;2.90;;
80127;SDS011;69440;52.118;5.408;2023-05-14T14:19:24;6.55;;;3.60;;
80127;SDS011;69440;52.118;5.408;2023-05-14T14:21:50;7.57;;;3.72;;
80127;SDS011;69440;52.118;5.408;2023-05-14T14:24:17;5.72;;;3.17;;
80127;SDS011;69440;52.118;5.408;2023-05-14T14:26:43;6.30;;;3.17;;
80127;SDS011;69440;52.118;5.408;2023-05-14T14:29:09;5.35;;;3.50;;
80127;SDS011;69440;52.118;5.408;2023-05-14T14:31:36;6.38;;;3.28;;
80127;SDS011;69440;52.118;5.408;2023-05-14T14:34:02;8.13;;;3.70;;
80127;SDS011;69440;52.118;5.408;2023-05-14T14:36:29;9.13;;;3.30;;
80127;SDS011;69440;52.118;5.408;2023-05-14T14:38:56;6.43;;;3.42;;
80127;SDS011;69440;52.118;5.408;2023-05-14T14:41:23;6.63;;;3.33;;
80127;SDS011;69440;52.118;5.408;2023-05-14T14:43:49;9.10;;;3.40;;